createdAt,value
2024-02-06T00:02:18.235Z,0.72
2024-02-06T00:04:46.344Z,0.69
2024-02-06T00:07:20.562Z,0.68
2024-02-06T00:09:56.812Z,0.63
2024-02-06T00:12:24.559Z,0.58
2024-02-06T00:14:54.158Z,0.55
2024-02-06T00:17:22.649Z,0.54
2024-02-06T00:19:50.478Z,0.54
2024-02-06T00:22:18.226Z,0.53
2024-02-06T00:24:46.562Z,0.51
2024-02-06T00:27:14.220Z,0.48
2024-02-06T00:29:41.876Z,0.46
2024-02-06T00:32:09.441Z,0.43
2024-02-06T00:34:37.097Z,0.45
2024-02-06T00:37:05.514Z,0.45
2024-02-06T00:39:33.458Z,0.45
2024-02-06T00:42:01.134Z,0.45
2024-02-06T00:44:29.402Z,0.45
2024-02-06T00:46:57.068Z,0.45
2024-02-06T00:49:24.782Z,0.42
2024-02-06T00:51:52.644Z,0.40
2024-02-06T00:54:20.260Z,0.38
2024-02-06T00:56:47.818Z,0.38
2024-02-06T00:59:15.479Z,0.38
2024-02-06T01:01:43.093Z,0.37
2024-02-06T01:04:10.949Z,0.37
2024-02-06T01:06:38.599Z,0.36
2024-02-06T01:09:06.273Z,0.35
2024-02-06T01:11:33.911Z,0.34
2024-02-06T01:14:01.771Z,0.32
2024-02-06T01:16:29.367Z,0.30
2024-02-06T01:18:57.104Z,0.29
2024-02-06T01:21:24.761Z,0.30
2024-02-06T01:23:52.325Z,0.27
2024-02-06T01:26:19.838Z,0.27
2024-02-06T01:28:47.419Z,0.26
2024-02-06T01:31:15.237Z,0.27
2024-02-06T01:33:42.912Z,0.26
2024-02-06T01:36:10.442Z,0.24
2024-02-06T01:38:38.038Z,0.21
2024-02-06T01:41:05.708Z,0.20
2024-02-06T01:43:33.559Z,0.19
2024-02-06T01:46:01.654Z,0.22
2024-02-06T01:48:30.048Z,0.25
2024-02-06T01:50:58.059Z,0.25
2024-02-06T01:53:25.723Z,0.24
2024-02-06T01:55:53.497Z,0.26
2024-02-06T01:58:21.706Z,0.28
2024-02-06T02:00:49.280Z,0.27
2024-02-06T02:03:16.993Z,0.28
2024-02-06T02:05:46.033Z,0.29
2024-02-06T02:08:14.716Z,0.30
2024-02-06T02:10:42.365Z,0.33
2024-02-06T02:13:10.147Z,0.32
2024-02-06T02:15:37.971Z,0.35
2024-02-06T02:18:08.969Z,0.33
2024-02-06T02:20:36.681Z,0.35
2024-02-06T02:23:10.183Z,0.36
2024-02-06T02:25:43.456Z,0.35
2024-02-06T02:28:11.471Z,0.34
2024-02-06T02:30:39.034Z,0.34
2024-02-06T02:33:06.684Z,0.34
2024-02-06T02:35:34.450Z,0.39
2024-02-06T02:38:02.104Z,0.43
2024-02-06T02:40:30.112Z,0.43
2024-02-06T02:42:57.783Z,0.43
2024-02-06T02:45:25.397Z,0.45
2024-02-06T02:47:53.014Z,0.46
2024-02-06T02:50:20.832Z,0.48
2024-02-06T02:52:48.390Z,0.48
2024-02-06T02:55:16.061Z,0.51
2024-02-06T02:57:43.716Z,0.52
2024-02-06T03:00:12.510Z,0.53
2024-02-06T03:02:40.071Z,0.54
2024-02-06T03:05:09.443Z,0.54
2024-02-06T03:07:37.170Z,0.54
2024-02-06T03:10:05.650Z,0.54
2024-02-06T03:12:33.597Z,0.54
2024-02-06T03:15:01.692Z,0.53
2024-02-06T03:17:29.244Z,0.54
2024-02-06T03:19:56.883Z,0.54
2024-02-06T03:22:25.813Z,0.53
2024-02-06T03:24:53.697Z,0.53
2024-02-06T03:27:21.451Z,0.53
2024-02-06T03:29:48.977Z,0.54
2024-02-06T03:32:16.538Z,0.54
2024-02-06T03:34:44.145Z,0.52
2024-02-06T03:37:12.190Z,0.53
2024-02-06T03:39:39.835Z,0.52
2024-02-06T03:42:07.416Z,0.52
2024-02-06T03:44:34.964Z,0.52
2024-02-06T03:47:02.522Z,0.50
2024-02-06T03:49:30.178Z,0.49
2024-02-06T03:51:57.873Z,0.49
2024-02-06T03:54:25.406Z,0.49
2024-02-06T03:56:53.384Z,0.51
2024-02-06T03:59:21.046Z,0.52
2024-02-06T04:01:49.072Z,0.58
2024-02-06T04:04:17.172Z,0.61
2024-02-06T04:06:45.112Z,0.59
2024-02-06T04:09:12.731Z,0.61
2024-02-06T04:11:40.285Z,0.63
2024-02-06T04:14:07.945Z,0.67
2024-02-06T04:16:35.596Z,0.69
2024-02-06T04:19:03.593Z,0.70
2024-02-06T04:21:31.364Z,0.71
2024-02-06T04:23:58.826Z,0.74
2024-02-06T04:26:26.371Z,0.75
2024-02-06T04:28:55.059Z,0.76
2024-02-06T04:31:22.672Z,0.78
2024-02-06T04:33:50.650Z,0.78
2024-02-06T04:36:18.973Z,0.79
2024-02-06T04:38:46.532Z,0.82
2024-02-06T04:41:14.194Z,0.82
2024-02-06T04:43:41.784Z,0.81
2024-02-06T04:46:09.782Z,0.79
2024-02-06T04:48:37.545Z,0.81
2024-02-06T04:51:05.277Z,0.81
2024-02-06T04:53:33.203Z,0.80
2024-02-06T04:56:01.312Z,0.82
2024-02-06T04:58:29.006Z,0.83
2024-02-06T05:00:56.840Z,0.84
2024-02-06T05:03:24.499Z,0.86
2024-02-06T05:05:52.205Z,0.90
2024-02-06T05:08:19.726Z,0.94
2024-02-06T05:10:48.822Z,0.99
2024-02-06T05:13:16.547Z,1.02
2024-02-06T05:15:44.267Z,1.03
2024-02-06T05:18:11.967Z,1.03
2024-02-06T05:20:39.578Z,1.07
2024-02-06T05:23:07.141Z,1.06
2024-02-06T05:25:34.783Z,1.07
2024-02-06T05:28:02.508Z,1.07
2024-02-06T05:30:30.133Z,1.08
2024-02-06T05:32:57.834Z,1.09
2024-02-06T05:35:25.503Z,1.08
2024-02-06T05:37:53.228Z,1.07
2024-02-06T05:40:20.826Z,1.06
2024-02-06T05:42:48.768Z,1.05
2024-02-06T05:45:16.532Z,1.07
2024-02-06T05:47:44.104Z,1.08
2024-02-06T05:50:12.486Z,1.11
2024-02-06T05:52:40.247Z,1.12
2024-02-06T05:55:08.651Z,1.12
2024-02-06T05:57:36.483Z,1.12
2024-02-06T06:00:07.957Z,1.14
2024-02-06T06:02:35.813Z,1.13
2024-02-06T06:05:04.054Z,1.14
2024-02-06T06:07:31.892Z,1.16
2024-02-06T06:09:59.776Z,1.17
2024-02-06T06:12:27.374Z,1.20
2024-02-06T06:14:55.451Z,1.21
2024-02-06T06:17:23.011Z,1.20
2024-02-06T06:19:50.737Z,1.22
2024-02-06T06:22:18.713Z,1.23
2024-02-06T06:24:46.834Z,1.26
2024-02-06T06:27:14.592Z,1.24
2024-02-06T06:29:42.149Z,1.24
2024-02-06T06:32:09.710Z,1.21
2024-02-06T06:34:37.406Z,1.21
2024-02-06T06:37:05.693Z,1.21
2024-02-06T06:39:34.237Z,1.16
2024-02-06T06:42:01.820Z,1.19
2024-02-06T06:44:29.366Z,1.18
2024-02-06T06:47:02.662Z,1.16
2024-02-06T06:49:30.327Z,1.15
2024-02-06T06:51:58.110Z,1.17
2024-02-06T06:54:25.752Z,1.20
2024-02-06T06:56:53.516Z,1.20
2024-02-06T06:59:21.182Z,1.21
2024-02-06T07:01:48.996Z,1.24
2024-02-06T07:04:20.071Z,1.23
2024-02-06T07:06:47.922Z,1.20
2024-02-06T07:09:19.213Z,1.16
2024-02-06T07:11:47.001Z,1.14
2024-02-06T07:14:14.639Z,1.10
2024-02-06T07:16:42.652Z,1.13
2024-02-06T07:19:10.365Z,1.14
2024-02-06T07:21:38.142Z,1.13
2024-02-06T07:24:06.450Z,1.14
2024-02-06T07:26:34.110Z,1.16
2024-02-06T07:29:01.962Z,1.13
2024-02-06T07:31:29.688Z,1.13
2024-02-06T07:33:57.586Z,1.12
2024-02-06T07:36:25.662Z,1.14
2024-02-06T07:38:53.437Z,1.12
2024-02-06T07:41:20.993Z,1.12
2024-02-06T07:43:48.676Z,1.14
2024-02-06T07:46:16.578Z,1.16
2024-02-06T07:48:44.212Z,1.21
2024-02-06T07:51:12.672Z,1.27
2024-02-06T07:53:40.258Z,1.33
2024-02-06T07:56:08.065Z,1.38
2024-02-06T07:58:35.696Z,1.43
2024-02-06T08:01:03.491Z,1.46
2024-02-06T08:03:32.020Z,1.43
2024-02-06T08:05:59.674Z,1.41
2024-02-06T08:08:27.422Z,1.44
2024-02-06T08:10:55.076Z,1.42
2024-02-06T08:13:22.893Z,1.48
2024-02-06T08:15:51.252Z,1.53
2024-02-06T08:18:19.906Z,1.58
2024-02-06T08:20:47.914Z,1.65
2024-02-06T08:23:15.622Z,1.69
2024-02-06T08:25:44.325Z,1.71
2024-02-06T08:28:12.058Z,1.73
2024-02-06T08:30:39.810Z,1.75
2024-02-06T08:33:07.918Z,1.80
2024-02-06T08:35:35.906Z,1.86
2024-02-06T08:38:03.999Z,1.98
2024-02-06T08:40:31.926Z,2.11
2024-02-06T08:42:59.871Z,2.22
2024-02-06T08:45:27.516Z,2.27
2024-02-06T08:47:55.174Z,2.33
2024-02-06T08:50:23.017Z,2.38
2024-02-06T08:52:50.795Z,2.42
2024-02-06T08:55:18.523Z,2.43
2024-02-06T08:57:46.251Z,2.48
2024-02-06T09:00:16.930Z,2.53
2024-02-06T09:02:44.643Z,2.65
2024-02-06T09:05:12.696Z,2.77
2024-02-06T09:07:40.528Z,2.70
2024-02-06T09:10:09.008Z,2.66
2024-02-06T09:12:36.730Z,2.64
2024-02-06T09:15:05.240Z,2.60
2024-02-06T09:17:33.443Z,2.58
2024-02-06T09:20:01.611Z,2.47
2024-02-06T09:22:29.455Z,2.38
2024-02-06T09:24:57.214Z,2.34
2024-02-06T09:27:24.979Z,2.32
2024-02-06T09:29:52.687Z,2.28
2024-02-06T09:32:20.397Z,2.26
2024-02-06T09:34:48.376Z,2.25
2024-02-06T09:37:16.245Z,2.27
2024-02-06T09:39:44.204Z,2.26
2024-02-06T09:42:11.889Z,2.17
2024-02-06T09:44:39.640Z,2.12
2024-02-06T09:47:07.403Z,2.15
2024-02-06T09:49:35.273Z,2.19
2024-02-06T09:54:32.542Z,2.21
2024-02-06T09:57:00.215Z,2.20
2024-02-06T09:59:28.903Z,2.10
2024-02-06T10:01:56.968Z,2.07
2024-02-06T10:04:25.134Z,2.09
2024-02-06T10:06:52.970Z,2.12
2024-02-06T10:09:20.807Z,2.10
2024-02-06T10:11:48.348Z,2.14
2024-02-06T10:14:17.033Z,2.11
2024-02-06T10:16:44.821Z,2.11
2024-02-06T10:19:14.634Z,2.12
2024-02-06T10:21:42.478Z,2.13
2024-02-06T10:24:10.144Z,2.12
2024-02-06T10:26:43.027Z,2.14
2024-02-06T10:29:19.022Z,2.14
2024-02-06T10:31:46.805Z,2.15
2024-02-06T10:34:16.073Z,2.19
2024-02-06T10:36:44.037Z,2.18
2024-02-06T10:39:12.091Z,2.16
2024-02-06T10:42:00.009Z,2.18
2024-02-06T10:44:29.944Z,2.22
2024-02-06T10:47:01.829Z,2.28
2024-02-06T10:49:31.485Z,2.36
2024-02-06T10:52:17.673Z,2.43
2024-02-06T10:54:45.718Z,2.46
2024-02-06T10:57:14.112Z,2.48
2024-02-06T10:59:54.096Z,2.49
2024-02-06T11:02:25.644Z,2.48
2024-02-06T11:05:32.583Z,2.41
2024-02-06T11:08:03.027Z,2.32
2024-02-06T11:10:38.688Z,2.29
2024-02-06T11:13:08.453Z,2.23
2024-02-06T11:15:36.802Z,2.21
2024-02-06T11:18:12.866Z,2.23
2024-02-06T11:20:41.931Z,2.26
2024-02-06T11:23:09.980Z,2.27
2024-02-06T11:25:37.774Z,2.23
2024-02-06T11:28:07.572Z,2.24
2024-02-06T11:30:35.333Z,2.28
2024-02-06T11:33:05.948Z,2.32
2024-02-06T11:35:33.942Z,2.35
2024-02-06T11:38:01.593Z,2.36
2024-02-06T11:40:32.774Z,2.35
2024-02-06T11:43:05.144Z,2.37
2024-02-06T11:45:33.596Z,2.37
2024-02-06T11:48:02.412Z,2.39
2024-02-06T11:50:44.365Z,2.42
2024-02-06T11:53:16.789Z,2.44
2024-02-06T11:55:48.767Z,2.45
2024-02-06T11:58:17.680Z,2.44
2024-02-06T12:00:45.555Z,2.44
2024-02-06T12:03:16.324Z,2.45
2024-02-06T12:05:45.687Z,2.46
2024-02-06T12:08:18.284Z,2.45
2024-02-06T12:10:46.426Z,2.44
2024-02-06T12:13:14.384Z,2.42
2024-02-06T12:15:43.030Z,2.39
2024-02-06T12:18:18.022Z,2.37
2024-02-06T12:20:48.965Z,2.38
2024-02-06T12:23:17.092Z,2.41
2024-02-06T12:25:44.796Z,2.43
2024-02-06T12:28:17.367Z,2.43
2024-02-06T12:30:52.234Z,2.42
2024-02-06T12:33:21.024Z,2.41
2024-02-06T12:35:49.032Z,2.41
2024-02-06T12:38:19.494Z,2.38
2024-02-06T12:40:47.819Z,2.37
2024-02-06T12:43:17.992Z,2.39
2024-02-06T12:45:46.030Z,2.42
2024-02-06T12:48:13.749Z,2.47
2024-02-06T12:50:43.302Z,2.50
2024-02-06T12:53:11.383Z,2.51
2024-02-06T12:55:41.752Z,2.55
2024-02-06T12:58:10.209Z,2.56
2024-02-06T13:00:39.859Z,2.56
2024-02-06T13:03:09.135Z,2.56
2024-02-06T13:05:37.762Z,2.56
2024-02-06T13:08:11.355Z,2.59
2024-02-06T13:10:39.946Z,2.62
2024-02-06T13:13:09.523Z,2.61
2024-02-06T13:15:37.991Z,2.59
2024-02-06T13:18:07.063Z,2.56
2024-02-06T13:20:41.539Z,2.57
2024-02-06T13:23:13.394Z,2.56
2024-02-06T13:25:41.608Z,2.54
2024-02-06T13:28:09.864Z,2.52
2024-02-06T13:30:38.197Z,2.53
2024-02-06T13:33:09.817Z,2.54
2024-02-06T13:35:37.699Z,2.57
2024-02-06T13:38:06.042Z,2.55
2024-02-06T13:40:34.506Z,2.56
2024-02-06T13:43:02.469Z,2.54
2024-02-06T13:45:30.325Z,2.52
2024-02-06T13:47:58.176Z,2.52
2024-02-06T13:50:26.388Z,2.50
2024-02-06T13:52:55.024Z,2.48
2024-02-06T13:55:23.587Z,2.44
2024-02-06T13:57:51.389Z,2.42
2024-02-06T14:00:19.364Z,2.40
2024-02-06T14:02:47.923Z,2.37
2024-02-06T14:05:15.831Z,2.38
2024-02-06T14:07:43.901Z,2.39
2024-02-06T14:10:11.648Z,2.36
2024-02-06T14:12:44.769Z,2.32
2024-02-06T14:15:18.804Z,2.29
2024-02-06T14:17:47.905Z,2.27
2024-02-06T14:20:16.987Z,2.27
2024-02-06T14:22:45.598Z,2.28
2024-02-06T14:25:13.979Z,2.28
2024-02-06T14:27:41.793Z,2.27
2024-02-06T14:30:10.413Z,2.25
2024-02-06T14:32:41.196Z,2.21
2024-02-06T14:35:10.284Z,2.22
2024-02-06T14:37:38.129Z,2.26
2024-02-06T14:40:07.138Z,2.26
2024-02-06T14:42:34.830Z,2.28
2024-02-06T14:45:02.538Z,2.28
2024-02-06T14:47:30.712Z,2.27
2024-02-06T14:49:58.583Z,2.27
2024-02-06T14:52:27.089Z,2.28
2024-02-06T14:54:55.511Z,2.30
2024-02-06T14:57:26.935Z,2.30
2024-02-06T14:59:55.987Z,2.31
2024-02-06T15:02:23.672Z,2.32
2024-02-06T15:04:51.616Z,2.34
2024-02-06T15:07:20.462Z,2.38
2024-02-06T15:09:48.294Z,2.40
2024-02-06T15:12:15.935Z,2.41
2024-02-06T15:14:43.635Z,2.41
2024-02-06T15:17:11.442Z,2.41
2024-02-06T15:19:39.383Z,2.42
2024-02-06T15:22:07.210Z,2.43
2024-02-06T15:24:34.958Z,2.43
2024-02-06T15:27:03.639Z,2.43
2024-02-06T15:29:31.580Z,2.43
2024-02-06T15:32:00.065Z,2.44
2024-02-06T15:34:27.993Z,2.47
2024-02-06T15:36:57.361Z,2.50
2024-02-06T15:39:25.126Z,2.52
2024-02-06T15:41:52.695Z,2.51
2024-02-06T15:44:20.776Z,2.52
2024-02-06T15:46:54.357Z,2.53
2024-02-06T15:49:22.751Z,2.54
2024-02-06T15:51:50.767Z,2.55
2024-02-06T15:54:18.386Z,2.58
2024-02-06T15:56:46.049Z,2.58
2024-02-06T15:59:14.045Z,2.62
2024-02-06T16:01:51.388Z,2.63
2024-02-06T16:04:19.226Z,2.64
2024-02-06T16:06:47.124Z,2.65
2024-02-06T16:09:18.094Z,2.68
2024-02-06T16:11:50.026Z,2.70
2024-02-06T16:14:17.816Z,2.72
2024-02-06T16:16:46.294Z,2.74
2024-02-06T16:19:22.504Z,2.76
2024-02-06T16:22:01.298Z,2.77
2024-02-06T16:24:30.009Z,2.79
2024-02-06T16:26:57.636Z,2.78
2024-02-06T16:29:25.711Z,2.80
2024-02-06T16:31:54.196Z,2.82
2024-02-06T16:34:30.279Z,2.83
2024-02-06T16:37:06.070Z,2.85
2024-02-06T16:39:34.306Z,2.87
2024-02-06T16:42:01.862Z,2.88
2024-02-06T16:44:29.517Z,2.91
2024-02-06T16:46:57.180Z,2.93
2024-02-06T16:49:24.966Z,2.95
2024-02-06T16:51:52.811Z,2.96
2024-02-06T16:54:20.691Z,2.98
2024-02-06T16:56:48.469Z,3.02
2024-02-06T16:59:18.162Z,3.04
2024-02-06T17:01:45.820Z,3.07
2024-02-06T17:04:13.645Z,3.07
2024-02-06T17:06:43.647Z,3.08
2024-02-06T17:09:13.543Z,3.09
2024-02-06T17:11:47.958Z,3.10
2024-02-06T17:14:16.732Z,3.12
2024-02-06T17:16:48.087Z,3.13
2024-02-06T17:19:16.410Z,3.15
2024-02-06T17:21:47.451Z,3.14
2024-02-06T17:24:15.174Z,3.11
2024-02-06T17:26:42.857Z,3.08
2024-02-06T17:29:10.549Z,3.06
2024-02-06T17:31:38.820Z,3.09
2024-02-06T17:34:06.791Z,3.08
2024-02-06T17:36:40.123Z,3.06
2024-02-06T17:39:09.246Z,3.05
2024-02-06T17:41:37.349Z,3.03
2024-02-06T17:44:08.481Z,3.01
2024-02-06T17:46:36.174Z,2.98
2024-02-06T17:49:04.075Z,2.97
2024-02-06T17:51:32.586Z,2.97
2024-02-06T17:54:00.248Z,3.03
2024-02-06T17:56:28.933Z,3.14
2024-02-06T17:58:56.839Z,3.23
2024-02-06T18:01:26.337Z,3.31
2024-02-06T18:03:54.194Z,3.42
2024-02-06T18:06:21.934Z,3.56
2024-02-06T18:08:49.660Z,3.75
2024-02-06T18:11:17.360Z,3.92
2024-02-06T18:13:45.144Z,4.04
2024-02-06T18:16:13.049Z,4.17
2024-02-06T18:18:41.759Z,4.30
2024-02-06T18:21:09.452Z,4.43
2024-02-06T18:23:37.117Z,4.50
2024-02-06T18:26:08.549Z,4.54
2024-02-06T18:28:37.242Z,4.58
2024-02-06T18:31:05.617Z,4.64
2024-02-06T18:33:34.245Z,4.69
2024-02-06T18:36:01.999Z,4.73
2024-02-06T18:38:30.367Z,4.79
2024-02-06T18:40:59.893Z,4.84
2024-02-06T18:43:32.061Z,4.90
2024-02-06T18:46:00.037Z,4.95
2024-02-06T18:48:27.689Z,5.04
2024-02-06T18:50:55.832Z,5.11
2024-02-06T18:53:23.841Z,5.20
2024-02-06T18:55:51.809Z,5.24
2024-02-06T18:58:19.804Z,5.29
2024-02-06T19:00:47.758Z,5.36
2024-02-06T19:03:15.449Z,5.43
2024-02-06T19:05:43.441Z,5.47
2024-02-06T19:08:12.163Z,5.51
2024-02-06T19:10:41.121Z,5.55
2024-02-06T19:13:09.633Z,5.58
2024-02-06T19:15:37.521Z,5.65
2024-02-06T19:18:08.702Z,5.67
2024-02-06T19:20:36.560Z,5.71
2024-02-06T19:23:05.033Z,5.74
2024-02-06T19:25:33.369Z,5.75
2024-02-06T19:28:02.394Z,5.77
2024-02-06T19:30:30.370Z,5.82
2024-02-06T19:32:58.208Z,5.84
2024-02-06T19:35:26.056Z,5.87
2024-02-06T19:37:53.872Z,5.85
2024-02-06T19:40:23.439Z,5.83
2024-02-06T19:42:52.274Z,5.82
2024-02-06T19:45:22.816Z,5.83
2024-02-06T19:47:52.188Z,5.84
2024-02-06T19:50:20.234Z,5.81
2024-02-06T19:52:51.065Z,5.81
2024-02-06T19:55:19.943Z,5.82
2024-02-06T19:57:48.906Z,5.82
2024-02-06T20:00:17.535Z,5.84
2024-02-06T20:02:45.361Z,5.85
2024-02-06T20:05:14.170Z,5.86
2024-02-06T20:07:42.130Z,5.90
2024-02-06T20:10:11.716Z,5.90
2024-02-06T20:12:39.594Z,5.90
2024-02-06T20:15:08.320Z,5.91
2024-02-06T20:17:36.460Z,5.90
2024-02-06T20:20:05.363Z,5.91
2024-02-06T20:22:37.167Z,5.94
2024-02-06T20:25:05.989Z,5.95
2024-02-06T20:27:33.665Z,5.94
2024-02-06T20:30:01.491Z,5.95
2024-02-06T20:32:32.714Z,5.97
2024-02-06T20:35:00.780Z,5.97
2024-02-06T20:37:28.885Z,5.94
2024-02-06T20:39:56.708Z,5.96
2024-02-06T20:42:26.712Z,5.97
2024-02-06T20:44:54.598Z,5.97
2024-02-06T20:47:22.373Z,5.98
2024-02-06T20:49:50.309Z,5.95
2024-02-06T20:52:18.082Z,5.93
2024-02-06T20:54:46.979Z,5.93
2024-02-06T20:57:15.119Z,5.90
2024-02-06T20:59:42.741Z,5.92
2024-02-06T21:02:10.721Z,5.91
2024-02-06T21:04:38.796Z,5.90
2024-02-06T21:07:06.875Z,5.94
2024-02-06T21:09:35.019Z,5.98
2024-02-06T21:12:02.686Z,6.01
2024-02-06T21:14:31.761Z,6.03
2024-02-06T21:16:59.502Z,6.02
2024-02-06T21:19:27.379Z,6.02
2024-02-06T21:21:55.199Z,6.05
2024-02-06T21:24:23.557Z,6.04
2024-02-06T21:26:51.322Z,6.05
2024-02-06T21:29:21.120Z,6.08
2024-02-06T21:31:49.069Z,6.10
2024-02-06T21:34:17.668Z,6.11
2024-02-06T21:36:45.350Z,6.10
2024-02-06T21:39:14.695Z,6.13
2024-02-06T21:41:45.933Z,6.16
2024-02-06T21:44:13.793Z,6.16
2024-02-06T21:46:41.654Z,6.15
2024-02-06T21:49:09.437Z,6.16
2024-02-06T21:51:37.170Z,6.15
2024-02-06T21:54:04.834Z,6.15
2024-02-06T21:56:32.586Z,6.16
2024-02-06T21:59:00.284Z,6.18
2024-02-06T22:01:28.502Z,6.17
2024-02-06T22:03:56.423Z,6.17
2024-02-06T22:06:24.160Z,6.20
2024-02-06T22:08:51.953Z,6.19
2024-02-06T22:11:19.813Z,6.18
2024-02-06T22:13:47.491Z,6.19
2024-02-06T22:16:15.273Z,6.18
2024-02-06T22:18:42.934Z,6.23
2024-02-06T22:21:11.254Z,6.23
2024-02-06T22:23:39.069Z,6.21
2024-02-06T22:26:06.939Z,6.20
2024-02-06T22:28:34.588Z,6.19
2024-02-06T22:31:02.375Z,6.21
2024-02-06T22:33:30.079Z,6.21
2024-02-06T22:35:57.804Z,6.19
2024-02-06T22:38:25.343Z,6.21
2024-02-06T22:40:55.537Z,6.23
2024-02-06T22:43:25.225Z,6.25
2024-02-06T22:45:52.943Z,6.25
2024-02-06T22:48:20.609Z,6.25
2024-02-06T22:50:48.200Z,6.27
2024-02-06T22:53:15.729Z,6.30
2024-02-06T22:55:43.454Z,6.33
2024-02-06T22:58:11.500Z,6.32
2024-02-06T23:00:39.279Z,6.35
2024-02-06T23:03:06.923Z,6.39
2024-02-06T23:05:34.559Z,6.39
2024-02-06T23:08:02.274Z,6.38
2024-02-06T23:10:29.918Z,6.39
2024-02-06T23:12:57.549Z,6.42
2024-02-06T23:15:25.114Z,6.39
2024-02-06T23:17:52.777Z,6.38
2024-02-06T23:20:20.473Z,6.40
2024-02-06T23:22:48.386Z,6.37
2024-02-06T23:25:16.015Z,6.33
2024-02-06T23:27:43.736Z,6.30
2024-02-06T23:30:13.711Z,6.26
2024-02-06T23:32:41.471Z,6.23
2024-02-06T23:35:09.724Z,6.22
2024-02-06T23:37:37.595Z,6.19
2024-02-06T23:40:06.174Z,6.15
2024-02-06T23:42:33.727Z,6.16
2024-02-06T23:45:01.801Z,6.11
2024-02-06T23:47:29.771Z,6.13
2024-02-06T23:50:00.132Z,6.12
2024-02-06T23:52:28.407Z,6.13
2024-02-06T23:54:55.925Z,6.15
2024-02-06T23:57:24.711Z,6.20
2024-02-06T23:59:52.373Z,6.20
